LFQQ/LIL METAR and TAF weather

Enter ICAO airport designator
Station Type Date Time Source
LFQQ METAR 2020/01/20 13:00 UTC NOAA

LFQQ 201300Z AUTO VRB03KT 0700 0600 R26/1000U R08/0750N FG VV/// 03/03 Q1047 BECMG 7000 NSW OVC005


Station Type Date Time Source
LFQQ Decoded METAR 2020/01/20 13:00 UTC NOAA

Lille, France (LFQQ) 50-34N 003-06E 52M
Jan 20, 2020 - 08:00 AM EST / 2020.01.20 1300 UTC
Wind: Variable at 3 MPH (3 KT):0
Visibility: less than 1 mile:0
Sky conditions: obscured
Weather: fog
Temperature: 37 F (3 C)
Dew Point: 37 F (3 C)
Relative Humidity: 100%
Pressure (altimeter): 30.92 in. Hg (1047 hPa)
ob: LFQQ 201300Z AUTO VRB03KT 0700 0600 R26/1000U R08/0750N FG VV/// 03/03 Q1047 BECMG 7000 NSW OVC005
cycle: 13

Station Type Date Time Source
LFQQ TAF 2020/01/20 12:57 UTC NOAA

TAF
AMD LFQQ 201251Z 2012/2118 VRB02KT 0500 FG VV///
TEMPO 2012/2015 2000 BR OVC002
BECMG 2102/2104 FZFG
BECMG 2107/2109 4000 BR OVC002
BECMG 2109/2112 8000 NSW

Example: see airport list